createdAt,value
2019-03-18T00:00:02.875Z,97006.77
2019-03-18T00:02:33.845Z,96997.16
2019-03-18T00:05:08.418Z,96996.50
2019-03-18T00:07:40.261Z,97000.83
2019-03-18T00:10:13.561Z,96996.93
2019-03-18T00:12:52.211Z,96999.64
2019-03-18T00:15:41.526Z,97002.61
2019-03-18T00:18:17.173Z,96989.48
2019-03-18T00:20:48.890Z,96987.01
2019-03-18T00:23:20.735Z,96991.44
2019-03-18T00:25:52.150Z,96975.77
2019-03-18T00:28:23.559Z,96970.23
2019-03-18T00:30:55.109Z,96972.09
2019-03-18T00:33:27.107Z,96976.08
2019-03-18T00:35:58.574Z,96974.14
2019-03-18T00:38:29.903Z,96986.30
2019-03-18T00:41:01.709Z,96989.67
2019-03-18T00:43:34.486Z,96990.31
2019-03-18T00:46:09.022Z,96992.46
2019-03-18T00:48:43.060Z,96983.88
2019-03-18T00:51:14.451Z,96990.40
2019-03-18T00:53:45.551Z,96989.17
2019-03-18T00:56:16.720Z,96989.02
2019-03-18T00:58:47.516Z,96990.25
2019-03-18T01:01:19.367Z,96982.58
2019-03-18T01:03:49.843Z,96986.44
2019-03-18T01:06:20.899Z,96986.94
2019-03-18T01:08:52.267Z,96984.83
2019-03-18T01:11:23.376Z,96973.22
2019-03-18T01:14:14.240Z,96973.58
2019-03-18T01:16:49.801Z,96973.24
2019-03-18T01:19:22.877Z,96975.06
2019-03-18T01:21:56.970Z,96978.13
2019-03-18T01:24:31.627Z,96972.42
2019-03-18T01:27:03.346Z,96966.66
2019-03-18T01:29:39.526Z,96964.70
2019-03-18T01:32:10.412Z,96955.73
2019-03-18T01:34:41.836Z,96958.47
2019-03-18T01:37:15.741Z,96948.17
2019-03-18T01:39:47.466Z,96942.68
2019-03-18T01:42:19.177Z,96940.56
2019-03-18T01:44:50.538Z,96946.84
2019-03-18T01:47:21.414Z,96944.81
2019-03-18T01:49:53.110Z,96940.03
2019-03-18T01:52:25.048Z,96939.66
2019-03-18T01:54:56.058Z,96937.20
2019-03-18T01:57:33.995Z,96937.30
2019-03-18T02:00:09.920Z,96935.97
2019-03-18T03:02:06.446Z,96951.73
2019-03-18T03:04:38.202Z,96962.06
2019-03-18T03:07:09.917Z,96958.41
2019-03-18T03:09:41.025Z,96959.29
2019-03-18T03:12:12.036Z,96957.01
2019-03-18T03:14:43.107Z,96954.07
2019-03-18T03:17:14.554Z,96951.95
2019-03-18T03:19:46.294Z,96945.54
2019-03-18T03:22:17.030Z,96954.70
2019-03-18T03:24:48.218Z,96955.33
2019-03-18T03:27:20.213Z,96958.09
2019-03-18T03:29:50.859Z,96954.72
2019-03-18T03:32:22.807Z,96956.53
2019-03-18T03:34:54.137Z,96960.73
2019-03-18T03:37:25.214Z,96961.85
2019-03-18T03:39:56.919Z,96963.14
2019-03-18T03:42:28.499Z,96970.75
2019-03-18T03:44:59.907Z,96957.93
2019-03-18T03:47:31.194Z,96968.33
2019-03-18T03:50:02.888Z,96969.22
2019-03-18T03:52:34.798Z,96974.81
2019-03-18T03:55:06.295Z,96976.66
2019-03-18T03:57:38.654Z,96976.67
2019-03-18T04:00:09.922Z,96979.70
2019-03-18T04:02:41.701Z,96972.91
2019-03-18T04:05:12.970Z,96971.74
2019-03-18T04:07:44.033Z,96961.78
2019-03-18T04:10:48.271Z,96966.38
2019-03-18T04:13:19.721Z,96963.93
2019-03-18T04:15:50.825Z,96962.06
2019-03-18T04:18:21.800Z,96973.77
2019-03-18T04:21:01.177Z,96969.55
2019-03-18T04:23:32.324Z,96970.94
2019-03-18T04:26:09.427Z,96974.45
2019-03-18T04:28:41.170Z,96971.02
2019-03-18T04:31:32.014Z,96964.23
2019-03-18T04:34:03.073Z,96969.38
2019-03-18T04:36:34.727Z,96974.45
2019-03-18T04:39:09.470Z,96979.78
2019-03-18T04:41:40.489Z,96978.03
2019-03-18T04:44:18.685Z,96978.67
2019-03-18T04:46:49.416Z,96979.87
2019-03-18T04:49:20.756Z,96985.33
2019-03-18T04:51:51.074Z,96979.58
2019-03-18T04:54:21.813Z,96994.47
2019-03-18T04:57:25.955Z,96997.17
2019-03-18T04:59:57.926Z,97002.78
2019-03-18T05:02:29.713Z,97005.63
2019-03-18T05:05:00.827Z,97008.75
2019-03-18T05:07:31.871Z,97002.41
2019-03-18T05:10:02.988Z,97007.22
2019-03-18T05:12:34.298Z,97006.70
2019-03-18T05:15:05.455Z,97015.27
2019-03-18T05:17:43.876Z,97016.52
2019-03-18T05:20:14.898Z,97016.96
2019-03-18T05:22:46.258Z,97012.87
2019-03-18T05:25:17.438Z,97016.42
2019-03-18T05:27:49.101Z,97020.17
2019-03-18T05:30:22.025Z,97015.95
2019-03-18T05:32:52.675Z,97012.50
2019-03-18T05:35:24.109Z,97023.56
2019-03-18T05:37:54.754Z,97023.03
2019-03-18T05:40:26.154Z,97021.04
2019-03-18T05:42:57.734Z,97031.13
2019-03-18T05:45:29.543Z,97030.66
2019-03-18T05:48:00.168Z,97031.43
2019-03-18T05:50:30.461Z,97035.55
2019-03-18T05:53:01.578Z,97037.48
2019-03-18T05:55:32.727Z,97046.04
2019-03-18T05:58:04.146Z,97056.53
2019-03-18T06:00:34.975Z,97065.41
2019-03-18T06:03:05.634Z,97069.55
2019-03-18T06:05:40.970Z,97080.70
2019-03-18T06:08:12.408Z,97096.99
2019-03-18T06:10:43.829Z,97106.58
2019-03-18T06:13:15.103Z,97105.61
2019-03-18T06:15:58.927Z,97107.84
2019-03-18T06:18:52.603Z,97105.78
2019-03-18T06:21:31.769Z,97119.84
2019-03-18T06:24:09.027Z,97118.88
2019-03-18T06:26:41.090Z,97126.91
2019-03-18T06:29:12.510Z,97132.31
2019-03-18T06:31:43.268Z,97131.98
2019-03-18T06:34:14.755Z,97130.05
2019-03-18T06:36:46.496Z,97139.52
2019-03-18T06:39:18.043Z,97140.02
2019-03-18T06:41:57.751Z,97149.55
2019-03-18T06:44:28.727Z,97152.55
2019-03-18T06:47:00.185Z,97161.03
2019-03-18T06:49:31.247Z,97163.52
2019-03-18T06:52:03.616Z,97175.83
2019-03-18T06:54:34.434Z,97171.88
2019-03-18T06:57:07.768Z,97175.18
2019-03-18T06:59:38.861Z,97180.04
2019-03-18T07:02:09.708Z,97181.20
2019-03-18T07:04:42.079Z,97187.31
2019-03-18T07:07:13.096Z,97196.29
2019-03-18T07:09:46.022Z,97206.56
2019-03-18T07:12:18.297Z,97209.30
2019-03-18T07:14:50.180Z,97210.70
2019-03-18T07:17:22.966Z,97208.92
2019-03-18T07:19:53.922Z,97215.56
2019-03-18T07:22:25.009Z,97220.07
2019-03-18T07:24:56.535Z,97217.14
2019-03-18T07:27:27.972Z,97222.55
2019-03-18T07:29:59.756Z,97221.27
2019-03-18T07:32:31.235Z,97224.27
2019-03-18T07:35:02.947Z,97226.24
2019-03-18T07:37:34.873Z,97237.95
2019-03-18T07:40:06.042Z,97237.92
2019-03-18T07:42:37.077Z,97241.15
2019-03-18T07:45:09.956Z,97237.21
2019-03-18T07:47:41.683Z,97243.31
2019-03-18T07:50:12.878Z,97244.38
2019-03-18T07:52:44.228Z,97253.95
2019-03-18T07:55:14.975Z,97259.94
2019-03-18T07:57:46.397Z,97266.18
2019-03-18T08:00:17.431Z,97272.09
2019-03-18T08:02:48.758Z,97276.94
2019-03-18T08:05:19.452Z,97281.03
2019-03-18T08:07:50.194Z,97274.41
2019-03-18T08:10:41.192Z,97278.27
2019-03-18T08:13:12.918Z,97271.52
2019-03-18T08:15:43.583Z,97275.53
2019-03-18T08:18:15.663Z,97286.06
2019-03-18T08:20:46.370Z,97289.92
2019-03-18T08:23:17.662Z,97284.30
2019-03-18T08:25:48.069Z,97283.33
2019-03-18T08:28:19.338Z,97278.84
2019-03-18T08:30:50.550Z,97279.02
2019-03-18T08:33:21.569Z,97270.31
2019-03-18T08:35:52.587Z,97271.38
2019-03-18T08:38:24.067Z,97269.95
2019-03-18T08:40:55.307Z,97268.27
2019-03-18T08:43:26.648Z,97271.16
2019-03-18T08:45:57.986Z,97279.17
2019-03-18T08:48:29.871Z,97272.72
2019-03-18T08:51:01.585Z,97277.36
2019-03-18T08:53:32.333Z,97272.70
2019-03-18T08:56:03.824Z,97275.17
2019-03-18T08:58:35.132Z,97273.34
2019-03-18T09:01:06.499Z,97276.43
2019-03-18T09:03:37.204Z,97290.52
2019-03-18T09:06:08.373Z,97289.58
2019-03-18T09:08:39.760Z,97290.77
2019-03-18T09:11:10.766Z,97281.09
2019-03-18T09:13:42.056Z,97277.75
2019-03-18T09:16:13.373Z,97292.44
2019-03-18T09:18:45.099Z,97295.05
2019-03-18T09:21:16.679Z,97292.99
2019-03-18T09:23:47.333Z,97300.91
2019-03-18T09:26:19.548Z,97303.50
2019-03-18T09:28:49.904Z,97305.07
2019-03-18T09:31:21.637Z,97311.25
2019-03-18T09:33:52.773Z,97313.39
2019-03-18T09:36:23.878Z,97310.73
2019-03-18T09:38:54.881Z,97309.98
2019-03-18T09:41:26.340Z,97313.13
2019-03-18T09:43:56.955Z,97325.83
2019-03-18T09:46:28.048Z,97322.86
2019-03-18T09:48:59.295Z,97317.95
2019-03-18T09:51:30.742Z,97318.96
2019-03-18T09:54:01.727Z,97321.05
2019-03-18T09:56:32.366Z,97313.84
2019-03-18T09:59:03.285Z,97307.91
2019-03-18T10:01:34.328Z,97316.66
2019-03-18T10:04:05.005Z,97310.97
2019-03-18T10:06:36.098Z,97314.39
2019-03-18T10:09:09.587Z,97310.51
2019-03-18T10:11:40.942Z,97312.87
2019-03-18T10:14:11.596Z,97317.90
2019-03-18T10:16:42.621Z,97324.06
2019-03-18T10:19:13.571Z,97324.13
2019-03-18T10:21:45.324Z,97329.02
2019-03-18T10:24:16.586Z,97325.91
2019-03-18T10:26:47.615Z,97335.84
2019-03-18T10:29:23.111Z,97324.91
2019-03-18T10:31:53.755Z,97325.17
2019-03-18T10:34:25.028Z,97328.20
2019-03-18T10:36:55.720Z,97327.22
2019-03-18T10:39:26.480Z,97324.96
2019-03-18T10:41:57.187Z,97324.06
2019-03-18T10:44:27.919Z,97324.96
2019-03-18T10:46:59.911Z,97323.08
2019-03-18T10:49:30.558Z,97324.77
2019-03-18T10:52:01.904Z,97327.64
2019-03-18T10:54:33.216Z,97333.84
2019-03-18T10:57:03.900Z,97330.15
2019-03-18T10:59:34.928Z,97329.13
2019-03-18T11:02:05.971Z,97326.84
2019-03-18T11:04:39.043Z,97338.11
2019-03-18T11:07:09.798Z,97333.37
2019-03-18T11:09:41.757Z,97328.71
2019-03-18T11:12:13.104Z,97332.30
2019-03-18T11:14:44.421Z,97330.30
2019-03-18T11:17:15.141Z,97338.71
2019-03-18T11:19:57.508Z,97333.08
2019-03-18T11:22:19.180Z,97333.62
2019-03-18T11:24:50.278Z,97335.09
2019-03-18T11:27:21.330Z,97338.10
2019-03-18T11:29:52.512Z,97331.84
2019-03-18T11:32:33.551Z,97322.92
2019-03-18T11:35:04.709Z,97329.31
2019-03-18T11:37:36.495Z,97317.86
2019-03-18T11:40:08.633Z,97316.05
2019-03-18T11:42:40.050Z,97323.64
2019-03-18T11:45:12.350Z,97317.01
2019-03-18T11:47:43.458Z,97320.70
2019-03-18T11:50:14.536Z,97314.98
2019-03-18T11:52:45.945Z,97310.25
2019-03-18T11:55:16.789Z,97317.60
2019-03-18T11:57:48.120Z,97316.61
2019-03-18T12:00:20.098Z,97304.00
2019-03-18T12:02:51.227Z,97304.86
2019-03-18T12:05:21.578Z,97307.08
2019-03-18T12:07:52.752Z,97295.84
2019-03-18T12:10:25.492Z,97297.34
2019-03-18T12:12:57.146Z,97299.11
2019-03-18T12:15:28.203Z,97297.93
2019-03-18T12:17:59.627Z,97292.84
2019-03-18T12:20:33.171Z,97291.85
2019-03-18T12:23:03.566Z,97288.09
2019-03-18T12:25:35.003Z,97292.94
2019-03-18T12:28:06.039Z,97290.91
2019-03-18T12:30:37.292Z,97281.30
2019-03-18T12:33:08.499Z,97285.16
2019-03-18T12:35:39.816Z,97285.45
2019-03-18T12:38:33.970Z,97284.02
2019-03-18T12:41:07.091Z,97283.71
2019-03-18T12:43:38.458Z,97279.14
2019-03-18T12:46:09.135Z,97279.87
2019-03-18T12:48:40.570Z,97281.98
2019-03-18T12:51:11.829Z,97276.53
2019-03-18T12:53:42.909Z,97269.31
2019-03-18T12:56:14.132Z,97268.78
2019-03-18T12:58:46.010Z,97266.59
2019-03-18T13:01:17.026Z,97282.02
2019-03-18T13:03:48.145Z,97263.54
2019-03-18T13:06:19.181Z,97269.06
2019-03-18T13:08:50.353Z,97270.39
2019-03-18T13:11:22.015Z,97258.43
2019-03-18T13:13:53.345Z,97249.78
2019-03-18T13:16:24.803Z,97260.26
2019-03-18T13:18:56.835Z,97263.84
2019-03-18T13:21:30.632Z,97263.45
2019-03-18T13:24:00.617Z,97244.97
2019-03-18T13:26:32.472Z,97256.23
2019-03-18T13:29:03.830Z,97254.72
2019-03-18T13:31:34.157Z,97256.22
2019-03-18T13:34:04.894Z,97255.20
2019-03-18T13:36:36.219Z,97258.95
2019-03-18T13:39:10.155Z,97254.64
2019-03-18T13:41:41.252Z,97264.37
2019-03-18T13:44:12.568Z,97258.76
2019-03-18T13:46:44.996Z,97257.75
2019-03-18T13:49:16.543Z,97261.52
2019-03-18T13:51:47.700Z,97259.16
2019-03-18T13:54:19.574Z,97261.38
2019-03-18T13:56:51.057Z,97271.89
2019-03-18T13:59:22.116Z,97284.38
2019-03-18T14:01:53.566Z,97287.13
2019-03-18T14:04:25.253Z,97297.84
2019-03-18T14:06:57.001Z,97310.92
2019-03-18T14:09:28.018Z,97317.45
2019-03-18T14:12:03.422Z,97320.92
2019-03-18T14:14:34.005Z,97318.50
2019-03-18T14:17:05.734Z,97326.13
2019-03-18T14:19:37.403Z,97317.89
2019-03-18T14:22:09.093Z,97314.55
2019-03-18T14:24:40.489Z,97313.14
2019-03-18T14:27:11.866Z,97320.95
2019-03-18T14:29:43.262Z,97317.30
2019-03-18T14:32:15.289Z,97309.23
2019-03-18T14:34:46.966Z,97305.56
2019-03-18T14:37:18.564Z,97303.47
2019-03-18T14:39:49.333Z,97307.66
2019-03-18T14:42:20.044Z,97311.30
2019-03-18T14:44:51.390Z,97307.70
2019-03-18T14:47:22.490Z,97315.78
2019-03-18T14:49:53.760Z,97318.04
2019-03-18T14:52:25.188Z,97312.45
2019-03-18T14:54:56.717Z,97305.54
2019-03-18T14:57:28.052Z,97307.00
2019-03-18T14:59:59.479Z,97308.70
2019-03-18T15:02:30.176Z,97309.36
2019-03-18T15:05:01.288Z,97312.41
2019-03-18T15:07:33.260Z,97311.59
2019-03-18T15:10:29.147Z,97306.11
2019-03-18T15:13:00.500Z,97297.98
2019-03-18T15:15:31.313Z,97293.00
2019-03-18T15:18:01.570Z,97297.20
2019-03-18T15:20:32.405Z,97293.61
2019-03-18T15:23:03.540Z,97298.28
2019-03-18T15:25:34.229Z,97283.85
2019-03-18T15:28:07.801Z,97289.77
2019-03-18T15:30:40.986Z,97285.95
2019-03-18T15:33:11.727Z,97287.08
2019-03-18T15:35:42.933Z,97287.59
2019-03-18T15:38:14.504Z,97291.47
2019-03-18T15:40:45.907Z,97292.22
2019-03-18T15:43:27.018Z,97294.09
2019-03-18T15:45:58.096Z,97301.94
2019-03-18T15:48:29.989Z,97296.05
2019-03-18T15:51:01.201Z,97306.73
2019-03-18T15:53:32.337Z,97300.12
2019-03-18T15:56:03.887Z,97300.79
2019-03-18T15:58:35.047Z,97311.51
2019-03-18T16:01:06.689Z,97313.61
2019-03-18T16:03:37.862Z,97309.70
2019-03-18T16:06:09.112Z,97315.09
2019-03-18T16:08:40.852Z,97337.75
2019-03-18T16:11:14.286Z,97333.36
2019-03-18T16:13:45.368Z,97339.95
2019-03-18T16:16:16.690Z,97351.30
2019-03-18T16:18:48.198Z,97354.30
2019-03-18T16:21:19.565Z,97367.30
2019-03-18T16:23:50.692Z,97368.77
2019-03-18T16:26:21.653Z,97369.95
2019-03-18T16:28:53.427Z,97375.81
2019-03-18T16:31:23.719Z,97377.30
2019-03-18T16:33:55.201Z,97385.36
2019-03-18T16:36:26.867Z,97387.70
2019-03-18T16:38:57.580Z,97390.83
2019-03-18T16:41:29.378Z,97393.20
2019-03-18T16:44:01.315Z,97399.07
2019-03-18T16:46:32.363Z,97394.63
2019-03-18T16:49:02.945Z,97404.06
2019-03-18T16:51:34.465Z,97416.78
2019-03-18T16:54:05.886Z,97424.86
2019-03-18T16:56:36.935Z,97420.73
2019-03-18T16:59:08.330Z,97427.59
2019-03-18T17:01:48.621Z,97433.36
2019-03-18T17:04:19.592Z,97436.66
2019-03-18T17:06:51.631Z,97457.33
2019-03-18T17:09:28.571Z,97464.25
2019-03-18T17:11:59.870Z,97461.23
2019-03-18T17:14:31.250Z,97463.64
2019-03-18T17:17:02.608Z,97459.55
2019-03-18T17:19:33.326Z,97468.76
2019-03-18T17:22:04.638Z,97471.91
2019-03-18T17:24:36.196Z,97478.81
2019-03-18T17:27:06.963Z,97483.58
2019-03-18T17:29:37.690Z,97488.27
2019-03-18T17:32:08.712Z,97492.48
2019-03-18T17:34:40.081Z,97496.22
2019-03-18T17:37:11.845Z,97504.83
2019-03-18T17:39:43.149Z,97511.86
2019-03-18T17:42:14.908Z,97508.39
2019-03-18T17:44:46.394Z,97503.75
2019-03-18T17:47:17.955Z,97497.78
2019-03-18T17:49:49.519Z,97502.38
2019-03-18T17:52:21.192Z,97512.68
2019-03-18T17:54:51.974Z,97511.68
2019-03-18T17:57:23.362Z,97517.25
2019-03-18T17:59:54.759Z,97513.50
2019-03-18T18:02:26.444Z,97517.08
2019-03-18T18:05:02.877Z,97521.61
2019-03-18T18:07:30.990Z,97531.00
2019-03-18T18:10:02.910Z,97526.11
2019-03-18T18:12:34.648Z,97524.05
2019-03-18T18:15:12.560Z,97528.19
2019-03-18T18:17:44.230Z,97530.41
2019-03-18T18:20:15.470Z,97530.31
2019-03-18T18:22:47.007Z,97537.98
2019-03-18T18:25:18.146Z,97541.45
2019-03-18T18:27:49.867Z,97544.98
2019-03-18T18:30:20.242Z,97554.47
2019-03-18T18:33:03.380Z,97552.10
2019-03-18T18:35:41.282Z,97556.25
2019-03-18T18:38:13.625Z,97551.84
2019-03-18T18:40:51.798Z,97564.00
2019-03-18T18:43:24.079Z,97568.11
2019-03-18T18:45:55.172Z,97565.55
2019-03-18T18:48:27.136Z,97569.91
2019-03-18T18:50:58.982Z,97571.80
2019-03-18T18:53:45.604Z,97572.72
2019-03-18T18:56:16.484Z,97577.79
2019-03-18T18:58:48.112Z,97588.25
2019-03-18T19:01:49.545Z,97585.20
2019-03-18T19:04:20.460Z,97589.20
2019-03-18T19:07:00.552Z,97584.64
2019-03-18T19:09:31.831Z,97589.38
2019-03-18T19:12:03.485Z,97587.52
2019-03-18T19:14:35.766Z,97599.33
2019-03-18T19:17:22.784Z,97592.89
2019-03-18T19:20:00.406Z,97591.34
2019-03-18T19:22:32.275Z,97593.02
2019-03-18T19:25:04.399Z,97590.35
2019-03-18T19:27:44.065Z,97593.16
2019-03-18T19:30:21.170Z,97597.48
2019-03-18T19:32:59.227Z,97601.08
2019-03-18T19:35:30.734Z,97601.61
2019-03-18T19:38:03.757Z,97604.88
2019-03-18T19:40:37.995Z,97606.94
2019-03-18T19:43:09.478Z,97601.15
2019-03-18T19:45:41.169Z,97610.41
2019-03-18T19:48:19.871Z,97610.11
2019-03-18T19:50:51.321Z,97614.72
2019-03-18T19:53:26.872Z,97613.04
2019-03-18T19:55:58.142Z,97616.49
2019-03-18T19:58:30.415Z,97615.73
2019-03-18T20:01:01.513Z,97616.37
2019-03-18T20:03:41.454Z,97620.16
2019-03-18T20:06:15.029Z,97618.97
2019-03-18T20:08:45.699Z,97622.91
2019-03-18T20:11:16.941Z,97626.75
2019-03-18T20:13:49.662Z,97627.55
2019-03-18T20:16:21.644Z,97631.30
2019-03-18T20:19:08.396Z,97632.55
2019-03-18T20:21:40.395Z,97631.69
2019-03-18T20:24:11.687Z,97629.00
2019-03-18T20:26:43.074Z,97625.03
2019-03-18T20:29:29.139Z,97632.75
2019-03-18T20:32:01.306Z,97633.86
2019-03-18T20:34:37.142Z,97635.66
2019-03-18T20:37:08.393Z,97638.33
2019-03-18T20:39:48.913Z,97638.64
2019-03-18T20:42:27.637Z,97639.73
2019-03-18T20:45:02.382Z,97647.42
2019-03-18T20:47:36.248Z,97645.52
2019-03-18T20:50:10.753Z,97656.23
2019-03-18T20:52:47.457Z,97651.28
2019-03-18T20:55:18.865Z,97656.90
2019-03-18T20:57:51.357Z,97651.58
2019-03-18T21:00:22.737Z,97650.47
2019-03-18T21:02:54.243Z,97662.23
2019-03-18T21:05:25.637Z,97660.52
2019-03-18T21:17:30.004Z,97671.97
2019-03-18T21:20:01.065Z,97670.69
2019-03-18T21:22:31.440Z,97677.67
2019-03-18T21:25:04.051Z,97677.06
2019-03-18T21:27:34.385Z,97684.17
2019-03-18T21:30:05.372Z,97681.09
2019-03-18T21:32:35.662Z,97676.84
2019-03-18T21:35:06.674Z,97680.20
2019-03-18T21:37:37.318Z,97679.91
2019-03-18T21:40:10.557Z,97680.87
2019-03-18T21:42:40.884Z,97686.82
2019-03-18T21:45:15.463Z,97684.42
2019-03-18T21:47:46.420Z,97680.12
2019-03-18T21:50:17.120Z,97683.21
2019-03-18T21:52:47.653Z,97682.11
2019-03-18T21:55:20.179Z,97686.70
2019-03-18T21:57:50.895Z,97682.09
2019-03-18T22:00:21.196Z,97681.84
2019-03-18T22:05:21.924Z,97678.55
2019-03-18T22:07:52.811Z,97677.23
2019-03-18T22:10:24.328Z,97675.66
2019-03-18T22:12:54.998Z,97672.55
2019-03-18T22:15:26.318Z,97685.52
2019-03-18T22:17:58.110Z,97690.82
2019-03-18T22:20:29.057Z,97694.83
2019-03-18T22:23:02.023Z,97696.60
2019-03-18T22:25:34.807Z,97691.77
2019-03-18T22:28:06.761Z,97685.31
2019-03-18T22:30:38.197Z,97683.59
2019-03-18T22:33:09.677Z,97687.78
2019-03-18T22:35:45.304Z,97689.75
2019-03-18T22:38:17.244Z,97690.25
2019-03-18T22:40:47.937Z,97690.76
2019-03-18T22:43:18.838Z,97688.36
2019-03-18T22:45:49.879Z,97684.63
2019-03-18T22:48:20.832Z,97680.62
2019-03-18T22:50:52.142Z,97681.28
2019-03-18T22:53:22.423Z,97683.27
2019-03-18T22:55:53.477Z,97691.00
2019-03-18T22:58:24.590Z,97693.64
2019-03-18T23:01:09.235Z,97690.05
2019-03-18T23:03:40.578Z,97689.56
2019-03-18T23:06:15.773Z,97686.02
2019-03-18T23:08:48.818Z,97690.78
2019-03-18T23:11:19.363Z,97685.95
2019-03-18T23:13:50.689Z,97686.08
2019-03-18T23:16:21.665Z,97682.05
2019-03-18T23:18:52.580Z,97689.44
2019-03-18T23:21:23.625Z,97689.63
2019-03-18T23:23:54.367Z,97696.37
2019-03-18T23:26:26.930Z,97695.05
2019-03-18T23:28:58.587Z,97689.38
2019-03-18T23:31:29.485Z,97687.30
2019-03-18T23:34:00.802Z,97694.76
2019-03-18T23:36:31.144Z,97692.73
2019-03-18T23:39:11.128Z,97694.73
2019-03-18T23:41:42.891Z,97696.78
2019-03-18T23:44:14.170Z,97705.41
2019-03-18T23:46:44.995Z,97710.20
2019-03-18T23:49:16.374Z,97710.38
2019-03-18T23:51:47.370Z,97705.27
2019-03-18T23:54:18.417Z,97704.84
2019-03-18T23:56:49.360Z,97710.32
2019-03-18T23:59:20.943Z,97716.91
